ADDS METAR Data INFO
IDs: Format: Raw Decoded Include TAF

Data at: 0751 UTC 17 Oct 2017

KBQX 170735Z AUTO 05011G18KT 10SM BKN033 OVC038 22/13 A3018 RMK A01
KBQX 170715Z AUTO 05011G16KT 10SM OVC034 23/13 A3018 RMK A01
KBQX 170655Z AUTO 07013G23KT 10SM OVC034 23/12 A3018 RMK A01
KBQX 170635Z AUTO 04015G21KT 10SM OVC035 23/13 A3019 RMK A01
KBQX 170615Z AUTO 06010G20KT 10SM BKN035 OVC041 23/13 A3019 RMK A01
KBQX 170555Z AUTO 06012G23KT 10SM OVC036 23/13 A3020 RMK A01
KBQX 170535Z AUTO 06012G18KT 10SM OVC037 23/12 A3020 RMK A01
KBQX 170515Z AUTO 05014G26KT 10SM BKN036 OVC042 23/13 A3020 RMK A01
KBQX 170455Z AUTO 05013G25KT 10SM BKN036 BKN041 23/12 A3021 RMK A01
KBQX 170435Z AUTO 03021KT 10SM BKN035 BKN041 23/12 A3021 RMK A01
KBQX 170415Z AUTO 03020KT 10SM BKN036 23/11 A3022 RMK A01
KBQX 170355Z AUTO 04019G25KT 10SM SCT035 23/11 A3022 RMK A01
KBQX 170335Z AUTO 03022KT 10SM SCT035 23/11 A3021 RMK A01
KBQX 170315Z AUTO 03023KT 10SM SCT035 23/10 A3021 RMK A01
KBQX 170255Z AUTO 03021KT 10SM SCT036 23/10 A3021 RMK A01
KBQX 170235Z AUTO 03023KT 10SM BKN035 23/10 A3020 RMK A01
KBQX 170215Z AUTO 01021KT 10SM BKN035 24/10 A3020 RMK A01
KBQX 170155Z AUTO 02019KT 10SM BKN037 24/10 A3020 RMK A01
KBQX 170135Z AUTO 02019KT 10SM BKN037 24/10 A3020 RMK A01
KBQX 170115Z AUTO 02019KT 10SM BKN037 24/10 A3019 RMK A01
KBQX 170055Z AUTO 02018G23KT 10SM SCT037 24/09 A3018 RMK A01
KBQX 170035Z AUTO 02017KT 10SM FEW038 24/08 A3018 RMK A01
KBQX 170015Z AUTO 02017KT CLR 25/09 A3017 RMK A01
KBQX 162355Z AUTO 01015G21KT 10SM CLR 25/07 A3016 RMK A01
KBQX 162335Z AUTO 03015KT 10SM CLR 25/07 A3015 RMK A01
KBQX 162315Z AUTO 02019KT 10SM CLR 25/08 A3015 RMK A01
KBQX 162255Z AUTO 02018KT 10SM CLR 25/07 A3014 RMK A01
KBQX 162235Z AUTO 02019KT 10SM CLR 25/07 A3014 RMK A01
KBQX 162215Z AUTO 01017G25KT 10SM CLR 25/08 A3014 RMK A01
KBQX 162155Z AUTO 02018KT 10SM CLR 25/09 A3014 RMK A01
KBQX 162135Z AUTO 02017KT 10SM CLR 25/09 A3014 RMK A01
KBQX 162115Z AUTO 03018G24KT 10SM CLR 25/07 A3014 RMK A01
KBQX 162055Z AUTO 03019KT 10SM CLR 25/09 A3014 RMK A01
KBQX 162035Z AUTO 02019G25KT 10SM CLR 24/09 A3014 RMK A01
KBQX 162015Z AUTO 02021KT 9SM CLR 24/09 A3014 RMK A01
KBQX 161955Z AUTO 03018G23KT 10SM CLR 24/10 A3015 RMK A01
KBQX 161935Z AUTO 02020KT 10SM CLR 24/09 A3015 RMK A01
KBQX 161915Z AUTO 02021KT 10SM CLR 23/11 A3016 RMK A01
KBQX 161855Z AUTO 02020KT 10SM CLR 22/12 A3017 RMK A01
KBQX 161835Z AUTO 01021KT 10SM CLR 22/13 A3018 RMK A01
KBQX 161815Z AUTO 02021KT 10SM CLR 22/12 A3019 RMK A01
KBQX 161755Z AUTO 03021G28KT 10SM CLR 21/13 A3020 RMK A01
KBQX 161735Z AUTO 02023G29KT 10SM CLR 21/14 A3021 RMK A01
KBQX 161715Z AUTO 03027KT 10SM FEW060 FEW075 21/15 A3021 RMK A01
KBQX 161655Z AUTO 02025G31KT 10SM BKN060 BKN075 21/15 A3022 RMK A01
KBQX 161635Z AUTO 03026G31KT 10SM BKN060 BKN070 BKN080 21/15 A3022 RMK A01
KBQX 161615Z AUTO 03027KT 10SM BKN060 BKN080 21/15 A3023 RMK A01
KBQX 161555Z AUTO 03027G32KT 10SM CLR 21/15 A3022 RMK A01
KBQX 161535Z AUTO 03025G31KT 10SM CLR 21/14 A3022 RMK A01
KBQX 161515Z AUTO 03025G31KT 9SM CLR 21/14 A3022 RMK A01
KBQX 161455Z AUTO 03027G33KT 10SM CLR 21/15 A3022 RMK A01
KBQX 161435Z AUTO 02028KT 9SM CLR 21/15 A3021 RMK A01
KBQX 161415Z AUTO 02027G32KT CLR 21/15 A3021 RMK A01
KBQX 161355Z AUTO 03027KT 10SM CLR 22/15 A3019 RMK A01
KBQX 161335Z AUTO 02029KT 10SM CLR 22/16 A3017 RMK A01
KBQX 161315Z AUTO 02028G33KT 10SM CLR 22/16 A3016 RMK A01
KBQX 161255Z AUTO 02029KT 10SM SCT085 22/17 A3016 RMK A01
KBQX 161235Z AUTO 03027KT 10SM OVC085 22/17 A3017 RMK A01
KBQX 161215Z AUTO 03025G33KT 10SM FEW075 OVC085 22/16 A3016 RMK A01
KBQX 161155Z AUTO 03027G32KT 10SM OVC080 23/17 A3016 RMK A01
KBQX 161135Z AUTO 03026G32KT 10SM SCT055 OVC080 22/16 A3015 RMK A01
KBQX 161115Z AUTO 03028KT 10SM BKN050 OVC075 23/17 A3014 RMK A01
KBQX 161055Z AUTO 03028KT 10SM OVC050 23/17 A3013 RMK A01
KBQX 161035Z AUTO 03025G33KT 10SM OVC050 23/17 A3013 RMK A01
KBQX 161015Z AUTO 02025G30KT 10SM OVC050 23/17 A3012 RMK A01
KBQX 160955Z AUTO 02026G31KT 10SM OVC049 23/17 A3011 RMK A01
KBQX 160935Z AUTO 03027G33KT 10SM OVC048 23/17 A3011 RMK A01
KBQX 160915Z AUTO 03029KT 10SM BKN049 OVC055 23/17 A3012 RMK A01
KBQX 160855Z AUTO 03029KT 10SM OVC049 24/17 A3012 RMK A01
KBQX 160835Z AUTO 02031KT 10SM OVC050 24/17 A3011 RMK A01
KBQX 160815Z AUTO 03031KT 10SM OVC048 24/17 A3012 RMK A01
KBQX 160755Z AUTO 03029G35KT 10SM OVC048 24/17 A3013 RMK A01
KBQX 160735Z AUTO 03030KT 10SM BKN050 OVC060 24/17 A3013 RMK A01
KBQX 160715Z AUTO 03032KT 10SM BKN050 BKN060 24/16 A3013 RMK A01
KBQX 160655Z AUTO 03029G36KT 10SM BKN050 24/17 A3013 RMK A01
KBQX 160635Z AUTO 02031KT BKN050 BKN055 24/17 A3012 RMK A01
KBQX 160615Z AUTO 03030KT 10SM OVC048 24/17 A3013 RMK A01
KBQX 160555Z AUTO 02031KT 10SM BKN048 OVC055 24/18 A3013 RMK A01
KBQX 160535Z AUTO 03030KT 10SM FEW040 BKN050 BKN055 24/18 A3013 RMK A01
KBQX 160515Z AUTO 02029KT 10SM FEW040 BKN050 BKN060 24/18 A3013 RMK A01
KBQX 160455Z AUTO 02030KT 10SM BKN050 OVC060 24/18 A3013 RMK A01
KBQX 160435Z AUTO 02031KT 9SM FEW046 OVC055 24/18 A3013 RMK A01
KBQX 160415Z AUTO 02029KT 10SM BKN046 OVC050 24/19 A3013 RMK A01
KBQX 160355Z AUTO 02028KT 10SM BKN049 BKN055 24/19 A3014 RMK A01
KBQX 160335Z AUTO 01028KT 10SM BKN048 BKN055 24/19 A3013 RMK A01
KBQX 160315Z AUTO 01026KT 10SM BKN043 BKN049 OVC055 24/19 A3013 RMK A01
KBQX 160255Z AUTO 01028KT 9SM FEW032 BKN041 OVC055 25/19 A3013 RMK A01
KBQX 160235Z AUTO 01029KT 9SM FEW031 OVC041 25/20 A3012 RMK A01
KBQX 160215Z AUTO 36029KT 9SM SCT034 OVC042 25/20 A3012 RMK A01
KBQX 160155Z AUTO 36026G31KT 9SM BKN032 OVC039 25/21 A3012 RMK A01
KBQX 160135Z AUTO 36027KT 10SM FEW027 SCT038 BKN044 26/21 A3011 RMK A01
KBQX 160115Z AUTO 36027KT 9SM SCT027 BKN037 OVC055 26/22 A3010 RMK A01
KBQX 160055Z AUTO 36024KT 9SM SCT018 BKN026 OVC033 27/22 A3008 RMK A01
KBQX 160035Z AUTO 35013KT 9SM SCT017 BKN034 BKN045 28/24 A3007 RMK A01
KBQX 160015Z AUTO 03008KT 9SM CLR 28/24 A3006 RMK A01
KBQX 152355Z AUTO 07005KT 9SM CLR 28/24 A3006 RMK A01
KBQX 152335Z AUTO 07006KT 9SM CLR 28/24 A3005 RMK A01
KBQX 152315Z AUTO 07007KT 9SM CLR 28/24 A3004 RMK A01
KBQX 152255Z AUTO 07006KT 10SM CLR 28/24 A3004 RMK A01
KBQX 152235Z AUTO 07008KT 9SM CLR 28/24 A3004 RMK A01
KBQX 152215Z AUTO 07007KT 9SM CLR 28/24 A3004 RMK A01
KBQX 152155Z AUTO 08009KT 9SM CLR 28/24 A3004 RMK A01
KBQX 152135Z AUTO 07007KT 9SM CLR 28/24 A3004 RMK A01
KBQX 152115Z AUTO 07008KT 9SM CLR 28/24 A3004 RMK A01
KBQX 152055Z AUTO 07009KT 9SM CLR 28/24 A3003 RMK A01
KBQX 152035Z AUTO 06007KT 10SM CLR 29/24 A3002 RMK A01
KBQX 152015Z AUTO 05005KT 10SM CLR 29/24 A3004 RMK A01
KBQX 151955Z AUTO 03009KT 10SM CLR 29/24 A3004 RMK A01